sensor_id;sensor_type;location;lat;lon;timestamp;pressure;altitude;pressure_sealevel;temperature;humidity
71559;BME280;59382;43.852;25.952;2022-10-26T00:02:22;101515.41;;;19.03;55.27
71559;BME280;59382;43.852;25.952;2022-10-26T00:04:47;101525.53;;;19.03;55.18
71559;BME280;59382;43.852;25.952;2022-10-26T00:07:13;101518.88;;;18.99;55.04
71559;BME280;59382;43.852;25.952;2022-10-26T00:09:38;101527.69;;;19.01;55.20
71559;BME280;59382;43.852;25.952;2022-10-26T00:12:04;101522.09;;;18.96;55.44
71559;BME280;59382;43.852;25.952;2022-10-26T00:14:29;101503.88;;;18.85;55.61
71559;BME280;59382;43.852;25.952;2022-10-26T00:16:55;101502.69;;;18.81;55.53
71559;BME280;59382;43.852;25.952;2022-10-26T00:19:20;101514.81;;;18.85;55.86
71559;BME280;59382;43.852;25.952;2022-10-26T00:21:46;101502.13;;;18.79;55.89
71559;BME280;59382;43.852;25.952;2022-10-26T00:24:12;101512.56;;;18.82;55.61
71559;BME280;59382;43.852;25.952;2022-10-26T00:26:38;101500.53;;;18.83;55.70
71559;BME280;59382;43.852;25.952;2022-10-26T00:29:04;101517.63;;;18.90;55.59
71559;BME280;59382;43.852;25.952;2022-10-26T00:31:30;101511.09;;;18.91;55.71
71559;BME280;59382;43.852;25.952;2022-10-26T00:33:56;101494.97;;;18.78;55.44
71559;BME280;59382;43.852;25.952;2022-10-26T00:36:23;101494.00;;;18.84;55.81
71559;BME280;59382;43.852;25.952;2022-10-26T00:38:50;101512.75;;;18.92;55.58
71559;BME280;59382;43.852;25.952;2022-10-26T00:41:18;101515.72;;;18.90;55.70
71559;BME280;59382;43.852;25.952;2022-10-26T00:43:45;101515.56;;;18.97;55.47
71559;BME280;59382;43.852;25.952;2022-10-26T00:46:14;101528.16;;;18.98;55.55
71559;BME280;59382;43.852;25.952;2022-10-26T00:48:44;101533.50;;;19.04;55.38
71559;BME280;59382;43.852;25.952;2022-10-26T00:51:22;101522.56;;;19.04;55.50
71559;BME280;59382;43.852;25.952;2022-10-26T00:53:50;101520.38;;;19.06;55.18
71559;BME280;59382;43.852;25.952;2022-10-26T00:56:17;101517.38;;;19.08;54.95
71559;BME280;59382;43.852;25.952;2022-10-26T00:58:43;101525.19;;;19.16;55.03
71559;BME280;59382;43.852;25.952;2022-10-26T01:01:09;101533.72;;;19.19;55.00
71559;BME280;59382;43.852;25.952;2022-10-26T01:03:35;101536.81;;;19.23;55.13
71559;BME280;59382;43.852;25.952;2022-10-26T01:06:03;101541.78;;;19.26;55.01
71559;BME280;59382;43.852;25.952;2022-10-26T01:08:29;101524.53;;;19.25;55.00
71559;BME280;59382;43.852;25.952;2022-10-26T01:10:57;101533.19;;;19.34;54.92
71559;BME280;59382;43.852;25.952;2022-10-26T01:13:24;101523.31;;;19.33;54.89
71559;BME280;59382;43.852;25.952;2022-10-26T01:24:21;101526.44;;;19.08;55.06
71559;BME280;59382;43.852;25.952;2022-10-26T01:29:52;101534.63;;;18.92;55.53
71559;BME280;59382;43.852;25.952;2022-10-26T01:32:32;101530.97;;;18.86;55.29
71559;BME280;59382;43.852;25.952;2022-10-26T01:35:11;101531.78;;;18.87;55.39
71559;BME280;59382;43.852;25.952;2022-10-26T01:37:48;101517.38;;;18.91;55.37
71559;BME280;59382;43.852;25.952;2022-10-26T01:40:37;101532.06;;;19.02;55.31
71559;BME280;59382;43.852;25.952;2022-10-26T01:43:08;101513.81;;;18.91;55.16
71559;BME280;59382;43.852;25.952;2022-10-26T01:45:38;101518.81;;;18.94;55.22
71559;BME280;59382;43.852;25.952;2022-10-26T01:48:07;101522.59;;;18.93;55.33
71559;BME280;59382;43.852;25.952;2022-10-26T01:50:34;101538.13;;;19.04;55.25
71559;BME280;59382;43.852;25.952;2022-10-26T01:53:01;101533.25;;;19.06;54.95
71559;BME280;59382;43.852;25.952;2022-10-26T01:55:49;101541.28;;;19.12;55.04
71559;BME280;59382;43.852;25.952;2022-10-26T01:59:33;101542.13;;;19.13;54.86
71559;BME280;59382;43.852;25.952;2022-10-26T02:13:56;101536.91;;;18.67;55.62
71559;BME280;59382;43.852;25.952;2022-10-26T02:19:19;101523.28;;;18.72;55.13
71559;BME280;59382;43.852;25.952;2022-10-26T02:22:01;101538.41;;;18.74;55.29
71559;BME280;59382;43.852;25.952;2022-10-26T02:24:30;101518.63;;;18.56;55.37
71559;BME280;59382;43.852;25.952;2022-10-26T02:26:59;101529.78;;;18.66;55.43
71559;BME280;59382;43.852;25.952;2022-10-26T02:29:27;101544.84;;;18.68;55.49
71559;BME280;59382;43.852;25.952;2022-10-26T02:31:54;101547.59;;;18.68;55.41
71559;BME280;59382;43.852;25.952;2022-10-26T02:34:23;101553.84;;;18.69;55.57
71559;BME280;59382;43.852;25.952;2022-10-26T02:36:52;101543.94;;;18.63;55.53
71559;BME280;59382;43.852;25.952;2022-10-26T02:39:19;101549.97;;;18.65;55.43
71559;BME280;59382;43.852;25.952;2022-10-26T02:41:47;101545.16;;;18.55;55.47
71559;BME280;59382;43.852;25.952;2022-10-26T02:44:25;101545.47;;;18.59;55.60
71559;BME280;59382;43.852;25.952;2022-10-26T02:46:55;101537.28;;;18.59;55.56
71559;BME280;59382;43.852;25.952;2022-10-26T02:49:22;101552.63;;;18.60;55.48
71559;BME280;59382;43.852;25.952;2022-10-26T02:52:05;101543.34;;;18.61;55.71
71559;BME280;59382;43.852;25.952;2022-10-26T02:54:34;101554.88;;;18.63;55.43
71559;BME280;59382;43.852;25.952;2022-10-26T02:57:37;101549.78;;;18.55;55.58
71559;BME280;59382;43.852;25.952;2022-10-26T03:00:08;101562.28;;;18.51;55.57
71559;BME280;59382;43.852;25.952;2022-10-26T03:02:34;101557.19;;;18.43;55.61
71559;BME280;59382;43.852;25.952;2022-10-26T03:05:15;101555.75;;;18.29;55.90
71559;BME280;59382;43.852;25.952;2022-10-26T03:07:43;101568.22;;;18.36;55.88
71559;BME280;59382;43.852;25.952;2022-10-26T03:10:09;101569.44;;;18.40;55.94
71559;BME280;59382;43.852;25.952;2022-10-26T03:12:34;101576.91;;;18.45;55.94
71559;BME280;59382;43.852;25.952;2022-10-26T03:15:00;101569.53;;;18.45;55.69
71559;BME280;59382;43.852;25.952;2022-10-26T03:17:27;101574.25;;;18.50;55.62
71559;BME280;59382;43.852;25.952;2022-10-26T03:19:52;101574.25;;;18.50;55.65
71559;BME280;59382;43.852;25.952;2022-10-26T03:22:19;101575.94;;;18.51;55.73
71559;BME280;59382;43.852;25.952;2022-10-26T03:24:44;101578.69;;;18.51;55.65
71559;BME280;59382;43.852;25.952;2022-10-26T03:27:10;101578.75;;;18.56;55.48
71559;BME280;59382;43.852;25.952;2022-10-26T03:29:35;101579.97;;;18.60;55.48
71559;BME280;59382;43.852;25.952;2022-10-26T03:32:01;101576.03;;;18.56;55.43
71559;BME280;59382;43.852;25.952;2022-10-26T03:34:26;101574.97;;;18.57;55.38
71559;BME280;59382;43.852;25.952;2022-10-26T03:36:53;101568.91;;;18.55;55.41
71559;BME280;59382;43.852;25.952;2022-10-26T03:39:18;101582.47;;;18.50;55.46
71559;BME280;59382;43.852;25.952;2022-10-26T03:41:44;101551.13;;;18.29;55.51
71559;BME280;59382;43.852;25.952;2022-10-26T03:44:09;101563.94;;;18.29;55.46
71559;BME280;59382;43.852;25.952;2022-10-26T03:46:35;101555.78;;;18.17;55.71
71559;BME280;59382;43.852;25.952;2022-10-26T03:49:00;101582.59;;;18.32;55.81
71559;BME280;59382;43.852;25.952;2022-10-26T03:51:26;101600.19;;;18.36;55.67
71559;BME280;59382;43.852;25.952;2022-10-26T03:53:52;101601.72;;;18.32;55.54
71559;BME280;59382;43.852;25.952;2022-10-26T03:56:18;101595.09;;;18.28;55.23
71559;BME280;59382;43.852;25.952;2022-10-26T03:58:45;101614.22;;;18.28;55.57
71559;BME280;59382;43.852;25.952;2022-10-26T04:01:10;101614.94;;;18.12;55.68
71559;BME280;59382;43.852;25.952;2022-10-26T04:03:36;101634.78;;;18.07;55.85
71559;BME280;59382;43.852;25.952;2022-10-26T04:06:02;101628.13;;;17.92;56.20
71559;BME280;59382;43.852;25.952;2022-10-26T04:08:30;101636.31;;;17.92;56.47
71559;BME280;59382;43.852;25.952;2022-10-26T04:10:56;101627.56;;;17.90;56.21
71559;BME280;59382;43.852;25.952;2022-10-26T04:13:22;101628.72;;;17.94;56.15
71559;BME280;59382;43.852;25.952;2022-10-26T04:15:47;101654.50;;;18.09;55.89
71559;BME280;59382;43.852;25.952;2022-10-26T04:18:13;101631.81;;;18.09;55.76
71559;BME280;59382;43.852;25.952;2022-10-26T04:20:40;101618.97;;;17.98;55.92
71559;BME280;59382;43.852;25.952;2022-10-26T04:23:10;101638.72;;;18.00;56.02
71559;BME280;59382;43.852;25.952;2022-10-26T04:25:35;101629.19;;;17.91;55.97
71559;BME280;59382;43.852;25.952;2022-10-26T04:28:02;101648.06;;;18.04;56.18
71559;BME280;59382;43.852;25.952;2022-10-26T04:30:29;101629.09;;;17.97;56.09
71559;BME280;59382;43.852;25.952;2022-10-26T04:32:54;101644.78;;;18.02;56.19
71559;BME280;59382;43.852;25.952;2022-10-26T04:35:20;101643.47;;;17.93;56.19
71559;BME280;59382;43.852;25.952;2022-10-26T04:37:46;101645.59;;;17.91;56.23
71559;BME280;59382;43.852;25.952;2022-10-26T04:40:11;101647.25;;;17.92;56.24
71559;BME280;59382;43.852;25.952;2022-10-26T04:42:44;101644.88;;;17.84;56.43
71559;BME280;59382;43.852;25.952;2022-10-26T04:45:12;101644.88;;;17.84;56.40
71559;BME280;59382;43.852;25.952;2022-10-26T04:47:38;101642.50;;;17.76;56.17
71559;BME280;59382;43.852;25.952;2022-10-26T04:50:04;101632.16;;;17.66;56.40
71559;BME280;59382;43.852;25.952;2022-10-26T04:52:30;101652.22;;;17.72;56.53
71559;BME280;59382;43.852;25.952;2022-10-26T04:54:56;101648.19;;;17.63;56.48
71559;BME280;59382;43.852;25.952;2022-10-26T04:57:23;101645.78;;;17.54;56.45
71559;BME280;59382;43.852;25.952;2022-10-26T05:00:07;101649.31;;;17.43;56.96
71559;BME280;59382;43.852;25.952;2022-10-26T05:02:58;101651.88;;;17.38;56.99
71559;BME280;59382;43.852;25.952;2022-10-26T05:05:42;101657.72;;;17.42;56.92
71559;BME280;59382;43.852;25.952;2022-10-26T05:08:26;101669.84;;;17.46;56.87
71559;BME280;59382;43.852;25.952;2022-10-26T05:11:11;101661.06;;;17.44;56.82
71559;BME280;59382;43.852;25.952;2022-10-26T05:13:56;101670.09;;;17.44;56.98
71559;BME280;59382;43.852;25.952;2022-10-26T05:16:40;101670.69;;;17.46;56.71
71559;BME280;59382;43.852;25.952;2022-10-26T05:19:24;101679.13;;;17.56;56.82
71559;BME280;59382;43.852;25.952;2022-10-26T05:22:08;101675.47;;;17.63;56.62
71559;BME280;59382;43.852;25.952;2022-10-26T05:24:56;101688.66;;;17.77;56.14
71559;BME280;59382;43.852;25.952;2022-10-26T05:27:40;101678.81;;;17.76;56.19
71559;BME280;59382;43.852;25.952;2022-10-26T05:30:24;101685.84;;;17.84;55.97
71559;BME280;59382;43.852;25.952;2022-10-26T05:33:10;101690.22;;;17.85;55.81
71559;BME280;59382;43.852;25.952;2022-10-26T05:35:55;101708.03;;;17.87;55.87
71559;BME280;59382;43.852;25.952;2022-10-26T05:38:39;101710.41;;;17.84;55.96
71559;BME280;59382;43.852;25.952;2022-10-26T05:41:23;101720.84;;;17.87;55.94
71559;BME280;59382;43.852;25.952;2022-10-26T05:44:07;101720.38;;;17.90;55.76
71559;BME280;59382;43.852;25.952;2022-10-26T05:46:51;101711.13;;;17.91;55.86
71559;BME280;59382;43.852;25.952;2022-10-26T05:49:36;101724.44;;;17.99;55.63
71559;BME280;59382;43.852;25.952;2022-10-26T05:52:20;101725.97;;;17.95;55.64
71559;BME280;59382;43.852;25.952;2022-10-26T05:55:06;101699.81;;;17.76;55.35
71559;BME280;59382;43.852;25.952;2022-10-26T05:57:51;101734.16;;;17.95;55.72
71559;BME280;59382;43.852;25.952;2022-10-26T06:00:36;101734.28;;;18.00;55.71
71559;BME280;59382;43.852;25.952;2022-10-26T06:06:38;101736.06;;;17.94;55.72
71559;BME280;59382;43.852;25.952;2022-10-26T06:09:23;101711.19;;;17.73;55.63
71559;BME280;59382;43.852;25.952;2022-10-26T06:12:08;101747.94;;;18.00;55.82
71559;BME280;59382;43.852;25.952;2022-10-26T06:14:53;101751.66;;;18.17;55.63
71559;BME280;59382;43.852;25.952;2022-10-26T06:23:23;101764.84;;;18.89;54.72
71559;BME280;59382;43.852;25.952;2022-10-26T06:31:57;101747.72;;;19.61;53.17
71559;BME280;59382;43.852;25.952;2022-10-26T06:34:47;101763.72;;;19.97;52.84
71559;BME280;59382;43.852;25.952;2022-10-26T06:37:34;101762.59;;;20.26;52.24
71559;BME280;59382;43.852;25.952;2022-10-26T06:40:20;101765.47;;;20.53;51.75
71559;BME280;59382;43.852;25.952;2022-10-26T06:43:23;101762.22;;;20.72;50.88
71559;BME280;59382;43.852;25.952;2022-10-26T06:49:30;101771.59;;;20.76;51.04
71559;BME280;59382;43.852;25.952;2022-10-26T06:55:13;101775.56;;;20.85;50.45
71559;BME280;59382;43.852;25.952;2022-10-26T06:57:57;101775.47;;;20.80;50.32
71559;BME280;59382;43.852;25.952;2022-10-26T07:00:43;101784.22;;;20.77;50.37
71559;BME280;59382;43.852;25.952;2022-10-26T07:03:27;101786.03;;;20.88;50.17
71559;BME280;59382;43.852;25.952;2022-10-26T07:06:11;101781.13;;;20.90;50.16
71559;BME280;59382;43.852;25.952;2022-10-26T07:08:55;101787.13;;;20.87;50.12
71559;BME280;59382;43.852;25.952;2022-10-26T07:11:40;101791.41;;;20.83;49.91
71559;BME280;59382;43.852;25.952;2022-10-26T07:14:23;101773.09;;;20.67;50.22
71559;BME280;59382;43.852;25.952;2022-10-26T07:17:08;101786.91;;;20.72;50.53
71559;BME280;59382;43.852;25.952;2022-10-26T07:19:53;101772.00;;;20.68;50.17
71559;BME280;59382;43.852;25.952;2022-10-26T07:22:37;101792.25;;;20.84;50.44
71559;BME280;59382;43.852;25.952;2022-10-26T07:25:22;101784.63;;;20.86;50.04
71559;BME280;59382;43.852;25.952;2022-10-26T07:28:09;101790.91;;;20.86;50.06
71559;BME280;59382;43.852;25.952;2022-10-26T07:30:53;101778.13;;;20.92;49.74
71559;BME280;59382;43.852;25.952;2022-10-26T07:33:37;101770.44;;;20.94;49.57
71559;BME280;59382;43.852;25.952;2022-10-26T07:36:22;101783.78;;;21.02;49.62
71559;BME280;59382;43.852;25.952;2022-10-26T07:39:06;101787.91;;;21.04;49.51
71559;BME280;59382;43.852;25.952;2022-10-26T07:41:51;101767.81;;;20.99;49.59
71559;BME280;59382;43.852;25.952;2022-10-26T07:44:35;101782.75;;;21.08;49.26
71559;BME280;59382;43.852;25.952;2022-10-26T07:47:33;101789.13;;;21.13;49.13
71559;BME280;59382;43.852;25.952;2022-10-26T07:50:21;101779.75;;;21.09;49.16
71559;BME280;59382;43.852;25.952;2022-10-26T07:53:28;101793.41;;;21.04;49.54
71559;BME280;59382;43.852;25.952;2022-10-26T07:56:19;101777.28;;;20.91;49.79
71559;BME280;59382;43.852;25.952;2022-10-26T07:59:03;101778.28;;;20.85;49.66
71559;BME280;59382;43.852;25.952;2022-10-26T08:01:47;101790.38;;;20.84;49.94
71559;BME280;59382;43.852;25.952;2022-10-26T08:04:31;101786.94;;;20.77;50.20
71559;BME280;59382;43.852;25.952;2022-10-26T08:07:15;101785.81;;;20.73;50.10
71559;BME280;59382;43.852;25.952;2022-10-26T08:09:59;101794.94;;;20.62;50.36
71559;BME280;59382;43.852;25.952;2022-10-26T08:12:43;101794.81;;;20.52;50.48
71559;BME280;59382;43.852;25.952;2022-10-26T08:15:28;101786.53;;;20.47;50.52
71559;BME280;59382;43.852;25.952;2022-10-26T08:18:12;101784.09;;;20.51;50.42
71559;BME280;59382;43.852;25.952;2022-10-26T08:21:02;101787.03;;;20.44;50.80
71559;BME280;59382;43.852;25.952;2022-10-26T08:23:48;101785.34;;;20.43;50.61
71559;BME280;59382;43.852;25.952;2022-10-26T08:26:32;101790.81;;;20.43;50.92
71559;BME280;59382;43.852;25.952;2022-10-26T08:29:17;101786.31;;;20.54;50.79
71559;BME280;59382;43.852;25.952;2022-10-26T08:32:00;101780.69;;;20.60;50.64
71559;BME280;59382;43.852;25.952;2022-10-26T08:34:44;101794.13;;;20.62;50.51
71559;BME280;59382;43.852;25.952;2022-10-26T08:37:28;101777.69;;;20.45;50.74
71559;BME280;59382;43.852;25.952;2022-10-26T08:40:25;101792.47;;;20.61;50.73
71559;BME280;59382;43.852;25.952;2022-10-26T08:43:18;101778.06;;;20.70;50.71
71559;BME280;59382;43.852;25.952;2022-10-26T08:46:19;101784.69;;;20.91;50.15
71559;BME280;59382;43.852;25.952;2022-10-26T08:49:19;101793.91;;;21.01;49.88
71559;BME280;59382;43.852;25.952;2022-10-26T08:52:05;101781.28;;;21.00;49.64
71559;BME280;59382;43.852;25.952;2022-10-26T08:54:56;101784.59;;;21.02;49.85
71559;BME280;59382;43.852;25.952;2022-10-26T08:57:46;101781.91;;;21.07;49.68
71559;BME280;59382;43.852;25.952;2022-10-26T09:00:31;101774.69;;;21.01;49.57
71559;BME280;59382;43.852;25.952;2022-10-26T09:03:16;101770.94;;;21.07;49.47
71559;BME280;59382;43.852;25.952;2022-10-26T09:11:56;101772.34;;;21.31;49.12
71559;BME280;59382;43.852;25.952;2022-10-26T09:15:03;101788.03;;;21.36;48.91
71559;BME280;59382;43.852;25.952;2022-10-26T09:29:37;101782.41;;;21.48;48.68
71559;BME280;59382;43.852;25.952;2022-10-26T09:32:28;101786.69;;;21.60;48.79
71559;BME280;59382;43.852;25.952;2022-10-26T09:35:25;101782.63;;;21.68;48.64
71559;BME280;59382;43.852;25.952;2022-10-26T09:38:16;101772.16;;;21.65;48.32
71559;BME280;59382;43.852;25.952;2022-10-26T09:41:21;101786.63;;;21.77;48.07
71559;BME280;59382;43.852;25.952;2022-10-26T09:47:26;101803.72;;;21.84;47.83
71559;BME280;59382;43.852;25.952;2022-10-26T09:50:16;101793.84;;;21.88;48.09
71559;BME280;59382;43.852;25.952;2022-10-26T09:53:02;101785.06;;;21.86;47.83
71559;BME280;59382;43.852;25.952;2022-10-26T09:55:48;101786.19;;;21.90;47.77
71559;BME280;59382;43.852;25.952;2022-10-26T09:58:43;101772.91;;;21.82;47.84
71559;BME280;59382;43.852;25.952;2022-10-26T10:01:33;101771.88;;;21.88;47.78
71559;BME280;59382;43.852;25.952;2022-10-26T10:04:20;101768.59;;;21.91;47.70
71559;BME280;59382;43.852;25.952;2022-10-26T10:10:14;101781.63;;;22.00;47.43
71559;BME280;59382;43.852;25.952;2022-10-26T10:12:59;101779.13;;;21.99;47.73
71559;BME280;59382;43.852;25.952;2022-10-26T10:16:01;101775.88;;;22.07;47.44
71559;BME280;59382;43.852;25.952;2022-10-26T10:18:59;101752.44;;;21.99;47.20
71559;BME280;59382;43.852;25.952;2022-10-26T10:21:47;101748.63;;;22.00;47.45
71559;BME280;59382;43.852;25.952;2022-10-26T10:24:34;101752.78;;;22.03;47.41
71559;BME280;59382;43.852;25.952;2022-10-26T10:27:19;101761.34;;;22.11;47.29
71559;BME280;59382;43.852;25.952;2022-10-26T10:30:20;101748.41;;;22.07;47.03
71559;BME280;59382;43.852;25.952;2022-10-26T10:33:11;101750.88;;;22.08;47.14
71559;BME280;59382;43.852;25.952;2022-10-26T10:35:56;101749.56;;;22.11;47.36
71559;BME280;59382;43.852;25.952;2022-10-26T10:38:45;101749.81;;;22.09;47.43
71559;BME280;59382;43.852;25.952;2022-10-26T10:41:33;101753.44;;;22.15;47.29
71559;BME280;59382;43.852;25.952;2022-10-26T10:44:29;101752.91;;;22.18;47.30
71559;BME280;59382;43.852;25.952;2022-10-26T10:47:23;101744.06;;;22.11;47.30
71559;BME280;59382;43.852;25.952;2022-10-26T10:50:17;101736.88;;;22.10;47.14
71559;BME280;59382;43.852;25.952;2022-10-26T10:56:40;101744.34;;;22.14;47.21
71559;BME280;59382;43.852;25.952;2022-10-26T11:11:36;101737.78;;;22.20;46.93
71559;BME280;59382;43.852;25.952;2022-10-26T11:14:29;101739.47;;;22.21;46.98
71559;BME280;59382;43.852;25.952;2022-10-26T11:17:17;101738.94;;;22.24;46.97
71559;BME280;59382;43.852;25.952;2022-10-26T11:20:05;101737.25;;;22.23;46.88
71559;BME280;59382;43.852;25.952;2022-10-26T11:26:07;101724.63;;;22.22;46.54
71559;BME280;59382;43.852;25.952;2022-10-26T11:29:10;101735.41;;;22.29;46.51
71559;BME280;59382;43.852;25.952;2022-10-26T11:32:20;101730.97;;;22.28;46.58
71559;BME280;59382;43.852;25.952;2022-10-26T11:38:14;101718.84;;;22.24;46.47
71559;BME280;59382;43.852;25.952;2022-10-26T11:41:24;101718.63;;;22.30;46.42
71559;BME280;59382;43.852;25.952;2022-10-26T11:44:18;101721.66;;;22.29;46.24
71559;BME280;59382;43.852;25.952;2022-10-26T11:47:24;101708.38;;;22.21;46.24
71559;BME280;59382;43.852;25.952;2022-10-26T11:50:15;101705.94;;;22.24;46.20
71559;BME280;59382;43.852;25.952;2022-10-26T11:56:46;101695.75;;;22.25;45.71
71559;BME280;59382;43.852;25.952;2022-10-26T11:59:41;101704.63;;;22.37;45.64
71559;BME280;59382;43.852;25.952;2022-10-26T12:02:26;101707.97;;;22.44;45.58
71559;BME280;59382;43.852;25.952;2022-10-26T12:05:20;101712.94;;;22.47;45.15
71559;BME280;59382;43.852;25.952;2022-10-26T12:08:12;101711.28;;;22.46;45.21
71559;BME280;59382;43.852;25.952;2022-10-26T12:11:30;101717.94;;;22.50;45.07
71559;BME280;59382;43.852;25.952;2022-10-26T12:17:25;101718.00;;;22.55;45.26
71559;BME280;59382;43.852;25.952;2022-10-26T12:23:09;101715.81;;;22.57;45.11
71559;BME280;59382;43.852;25.952;2022-10-26T12:31:52;101710.84;;;22.54;45.20
71559;BME280;59382;43.852;25.952;2022-10-26T12:48:56;101712.22;;;22.56;45.09
71559;BME280;59382;43.852;25.952;2022-10-26T12:51:43;101711.13;;;22.57;44.96
71559;BME280;59382;43.852;25.952;2022-10-26T12:54:35;101707.25;;;22.53;45.04
71559;BME280;59382;43.852;25.952;2022-10-26T12:57:35;101706.97;;;22.55;45.05
71559;BME280;59382;43.852;25.952;2022-10-26T13:00:25;101719.94;;;22.59;44.85
71559;BME280;59382;43.852;25.952;2022-10-26T13:09:22;101696.13;;;22.38;44.87
71559;BME280;59382;43.852;25.952;2022-10-26T13:12:07;101711.56;;;22.44;44.91
71559;BME280;59382;43.852;25.952;2022-10-26T13:15:03;101720.69;;;22.50;44.83
71559;BME280;59382;43.852;25.952;2022-10-26T13:17:53;101717.06;;;22.44;44.81
71559;BME280;59382;43.852;25.952;2022-10-26T13:23:46;101705.75;;;22.36;44.79
71559;BME280;59382;43.852;25.952;2022-10-26T13:26:31;101715.41;;;22.43;44.96
71559;BME280;59382;43.852;25.952;2022-10-26T13:33:08;101719.56;;;22.46;44.73
71559;BME280;59382;43.852;25.952;2022-10-26T13:36:20;101721.19;;;22.42;44.84
71559;BME280;59382;43.852;25.952;2022-10-26T13:42:40;101683.06;;;22.14;45.08
71559;BME280;59382;43.852;25.952;2022-10-26T13:45:29;101703.47;;;22.23;45.16
71559;BME280;59382;43.852;25.952;2022-10-26T13:48:30;101722.72;;;22.28;45.01
71559;BME280;59382;43.852;25.952;2022-10-26T13:51:27;101721.88;;;22.22;45.15
71559;BME280;59382;43.852;25.952;2022-10-26T13:57:21;101738.41;;;22.27;45.15
71559;BME280;59382;43.852;25.952;2022-10-26T14:00:18;101733.19;;;22.26;45.15
71559;BME280;59382;43.852;25.952;2022-10-26T14:03:15;101725.97;;;22.20;45.18
71559;BME280;59382;43.852;25.952;2022-10-26T14:06:27;101734.78;;;22.22;45.37
71559;BME280;59382;43.852;25.952;2022-10-26T14:09:15;101721.53;;;22.14;45.26
71559;BME280;59382;43.852;25.952;2022-10-26T14:12:00;101739.16;;;22.18;45.44
71559;BME280;59382;43.852;25.952;2022-10-26T14:14:45;101716.47;;;22.01;45.41
71559;BME280;59382;43.852;25.952;2022-10-26T14:17:22;101737.50;;;22.17;45.41
71559;BME280;59382;43.852;25.952;2022-10-26T14:19:50;101729.72;;;22.09;45.29
71559;BME280;59382;43.852;25.952;2022-10-26T14:22:25;101729.16;;;22.07;45.36
71559;BME280;59382;43.852;25.952;2022-10-26T14:24:56;101743.00;;;22.17;45.29
71559;BME280;59382;43.852;25.952;2022-10-26T14:27:40;101737.19;;;22.13;45.09
71559;BME280;59382;43.852;25.952;2022-10-26T14:30:29;101743.53;;;22.14;45.15
71559;BME280;59382;43.852;25.952;2022-10-26T14:32:55;101739.69;;;22.15;45.08
71559;BME280;59382;43.852;25.952;2022-10-26T14:35:27;101737.19;;;22.13;45.47
71559;BME280;59382;43.852;25.952;2022-10-26T14:38:01;101750.34;;;22.11;44.81
71559;BME280;59382;43.852;25.952;2022-10-26T14:40:29;101744.06;;;22.11;45.20
71559;BME280;59382;43.852;25.952;2022-10-26T14:42:59;101745.69;;;22.12;45.25
71559;BME280;59382;43.852;25.952;2022-10-26T14:45:29;101751.19;;;22.12;45.29
71559;BME280;59382;43.852;25.952;2022-10-26T14:47:57;101745.09;;;22.05;45.27
71559;BME280;59382;43.852;25.952;2022-10-26T14:50:23;101738.97;;;21.98;45.13
71559;BME280;59382;43.852;25.952;2022-10-26T14:52:57;101754.16;;;22.05;45.21
71559;BME280;59382;43.852;25.952;2022-10-26T14:55:24;101748.91;;;22.04;45.43
71559;BME280;59382;43.852;25.952;2022-10-26T14:57:52;101756.03;;;22.00;45.55
71559;BME280;59382;43.852;25.952;2022-10-26T15:00:30;101742.22;;;21.90;45.41
71559;BME280;59382;43.852;25.952;2022-10-26T15:02:56;101750.19;;;21.91;45.49
71559;BME280;59382;43.852;25.952;2022-10-26T15:07:51;101757.53;;;21.81;45.63
71559;BME280;59382;43.852;25.952;2022-10-26T15:13:09;101767.41;;;21.82;45.79
71559;BME280;59382;43.852;25.952;2022-10-26T15:15:35;101775.09;;;21.80;45.84
71559;BME280;59382;43.852;25.952;2022-10-26T15:18:02;101758.44;;;21.65;45.94
71559;BME280;59382;43.852;25.952;2022-10-26T15:20:30;101760.09;;;21.66;45.94
71559;BME280;59382;43.852;25.952;2022-10-26T15:22:58;101770.50;;;21.64;46.04
71559;BME280;59382;43.852;25.952;2022-10-26T15:25:26;101773.25;;;21.64;46.04
71559;BME280;59382;43.852;25.952;2022-10-26T15:27:53;101783.69;;;21.62;45.80
71559;BME280;59382;43.852;25.952;2022-10-26T15:30:22;101785.56;;;21.61;46.09
71559;BME280;59382;43.852;25.952;2022-10-26T15:32:49;101786.34;;;21.57;45.92
71559;BME280;59382;43.852;25.952;2022-10-26T15:37:45;101792.38;;;21.54;46.19
71559;BME280;59382;43.852;25.952;2022-10-26T15:40:11;101780.13;;;21.40;46.33
71559;BME280;59382;43.852;25.952;2022-10-26T15:42:39;101796.72;;;21.50;46.29
71559;BME280;59382;43.852;25.952;2022-10-26T15:45:19;101801.88;;;21.46;46.52
71559;BME280;59382;43.852;25.952;2022-10-26T15:47:45;101805.97;;;21.44;46.70
71559;BME280;59382;43.852;25.952;2022-10-26T15:50:18;101809.25;;;21.41;46.62
71559;BME280;59382;43.852;25.952;2022-10-26T15:52:44;101816.38;;;21.42;46.57
71559;BME280;59382;43.852;25.952;2022-10-26T15:55:09;101799.78;;;21.31;46.58
71559;BME280;59382;43.852;25.952;2022-10-26T15:57:36;101819.09;;;21.37;46.89
71559;BME280;59382;43.852;25.952;2022-10-26T16:00:04;101810.78;;;21.31;46.83
71559;BME280;59382;43.852;25.952;2022-10-26T16:02:32;101814.63;;;21.30;46.96
71559;BME280;59382;43.852;25.952;2022-10-26T16:04:58;101813.44;;;21.26;46.92
71559;BME280;59382;43.852;25.952;2022-10-26T16:07:24;101815.63;;;21.24;47.10
71559;BME280;59382;43.852;25.952;2022-10-26T16:09:51;101816.41;;;21.20;47.44
71559;BME280;59382;43.852;25.952;2022-10-26T16:12:16;101821.63;;;21.21;47.14
71559;BME280;59382;43.852;25.952;2022-10-26T16:14:42;101814.94;;;21.12;47.44